createdAt,value
2019-05-07T00:00:29.664Z,17.22
2019-05-07T00:01:29.584Z,17.26
2019-05-07T00:02:29.554Z,17.25
2019-05-07T00:03:29.546Z,17.30
2019-05-07T00:04:29.547Z,17.25
2019-05-07T00:05:29.553Z,17.22
2019-05-07T00:06:29.538Z,17.23
2019-05-07T00:07:29.507Z,17.30
2019-05-07T00:08:29.507Z,17.30
2019-05-07T00:09:29.485Z,17.30
2019-05-07T00:10:29.484Z,17.26
2019-05-07T00:11:29.497Z,17.33
2019-05-07T00:12:29.451Z,17.38
2019-05-07T00:13:29.437Z,17.30
2019-05-07T00:14:29.434Z,17.20
2019-05-07T00:15:29.444Z,17.32
2019-05-07T00:16:29.402Z,17.32
2019-05-07T00:17:29.393Z,17.30
2019-05-07T00:18:29.377Z,17.30
2019-05-07T00:19:29.375Z,17.33
2019-05-07T00:20:29.370Z,17.22
2019-05-07T00:21:29.375Z,17.20
2019-05-07T00:22:29.379Z,17.29
2019-05-07T00:23:29.332Z,17.28
2019-05-07T00:24:29.328Z,17.23
2019-05-07T00:25:29.302Z,17.32
2019-05-07T00:26:29.304Z,17.33
2019-05-07T00:27:29.315Z,17.32
2019-05-07T00:28:29.301Z,17.32
2019-05-07T00:29:29.260Z,17.30
2019-05-07T00:30:29.270Z,17.25
2019-05-07T00:31:29.242Z,17.32
2019-05-07T00:32:29.260Z,17.32
2019-05-07T00:33:29.219Z,17.26
2019-05-07T00:34:29.204Z,17.25
2019-05-07T00:35:29.196Z,17.32
2019-05-07T00:36:29.192Z,17.32
2019-05-07T00:37:29.195Z,17.26
2019-05-07T00:38:29.200Z,17.32
2019-05-07T00:39:29.155Z,17.28
2019-05-07T00:40:29.136Z,17.32
2019-05-07T00:41:29.171Z,17.26
2019-05-07T00:42:29.117Z,17.20
2019-05-07T00:43:29.112Z,17.29
2019-05-07T00:44:29.094Z,17.29
2019-05-07T00:45:29.111Z,17.36
2019-05-07T00:46:29.083Z,17.28
2019-05-07T00:47:29.095Z,17.32
2019-05-07T00:48:29.063Z,17.35
2019-05-07T00:49:29.073Z,17.28
2019-05-07T00:50:29.035Z,17.26
2019-05-07T00:51:29.745Z,17.23
2019-05-07T00:52:29.042Z,17.30
2019-05-07T00:53:28.994Z,17.23
2019-05-07T00:54:28.993Z,17.35
2019-05-07T00:55:28.972Z,17.28
2019-05-07T00:56:28.963Z,17.29
2019-05-07T00:57:28.950Z,17.32
2019-05-07T00:58:28.966Z,17.29
2019-05-07T00:59:28.930Z,17.38
2019-05-07T01:00:28.915Z,17.28
2019-05-07T01:01:28.913Z,17.23
2019-05-07T01:02:28.977Z,17.25
2019-05-07T01:03:28.889Z,17.29
2019-05-07T01:04:28.875Z,17.35
2019-05-07T01:05:28.870Z,17.38
2019-05-07T01:06:28.865Z,17.36
2019-05-07T01:07:28.841Z,17.29
2019-05-07T01:08:28.858Z,17.32
2019-05-07T01:09:28.835Z,17.38
2019-05-07T01:10:28.811Z,17.26
2019-05-07T01:11:28.806Z,17.35
2019-05-07T01:12:28.790Z,17.38
2019-05-07T01:13:28.811Z,17.38
2019-05-07T01:14:28.765Z,17.28
2019-05-07T01:15:32.160Z,17.40
2019-05-07T01:16:29.749Z,17.40
2019-05-07T01:17:28.753Z,17.35
2019-05-07T01:18:28.753Z,17.35
2019-05-07T01:19:28.731Z,17.41
2019-05-07T01:20:28.694Z,17.36
2019-05-07T01:21:28.684Z,17.26
2019-05-07T01:22:28.680Z,17.36
2019-05-07T01:23:28.697Z,17.38
2019-05-07T01:24:28.649Z,17.30
2019-05-07T01:25:28.641Z,17.38
2019-05-07T01:26:28.634Z,17.38
2019-05-07T01:27:28.617Z,17.38
2019-05-07T01:28:28.650Z,17.33
2019-05-07T01:29:28.602Z,17.40
2019-05-07T01:30:28.587Z,17.40
2019-05-07T01:31:28.613Z,17.36
2019-05-07T01:32:28.562Z,17.40
2019-05-07T01:33:28.559Z,17.30
2019-05-07T01:34:28.590Z,17.35
2019-05-07T01:35:28.531Z,17.41
2019-05-07T01:36:28.521Z,17.40
2019-05-07T01:37:28.527Z,17.36
2019-05-07T01:38:28.525Z,17.30
2019-05-07T01:39:28.495Z,17.36
2019-05-07T01:40:28.481Z,17.40
2019-05-07T01:41:28.484Z,17.29
2019-05-07T01:42:28.463Z,17.40
2019-05-07T01:43:28.480Z,17.33
2019-05-07T01:44:28.439Z,17.36
2019-05-07T01:45:42.293Z,17.38
2019-05-07T01:46:29.422Z,17.38
2019-05-07T01:47:28.402Z,17.35
2019-05-07T01:48:28.429Z,17.33
2019-05-07T01:49:28.378Z,17.32
2019-05-07T01:50:28.381Z,17.41
2019-05-07T01:51:28.362Z,17.35
2019-05-07T01:52:28.404Z,17.36
2019-05-07T01:53:28.337Z,17.33
2019-05-07T01:54:28.360Z,17.35
2019-05-07T01:55:28.322Z,17.32
2019-05-07T01:56:28.312Z,17.32
2019-05-07T01:57:28.290Z,17.41
2019-05-07T01:58:28.279Z,17.36
2019-05-07T01:59:28.315Z,17.33
2019-05-07T02:00:28.263Z,17.35
2019-05-07T02:01:28.254Z,17.30
2019-05-07T02:02:28.242Z,17.32
2019-05-07T02:03:28.225Z,17.38
2019-05-07T02:04:28.246Z,17.44
2019-05-07T02:05:28.205Z,17.33
2019-05-07T02:06:28.220Z,17.36
2019-05-07T02:07:28.201Z,17.35
2019-05-07T02:08:28.172Z,17.36
2019-05-07T02:09:28.200Z,17.35
2019-05-07T02:10:28.151Z,17.35
2019-05-07T02:11:28.137Z,17.36
2019-05-07T02:12:28.129Z,17.33
2019-05-07T02:13:28.137Z,17.35
2019-05-07T02:14:28.176Z,17.32
2019-05-07T02:15:28.123Z,17.40
2019-05-07T02:16:28.083Z,17.40
2019-05-07T02:17:28.080Z,17.46
2019-05-07T02:18:28.062Z,17.41
2019-05-07T02:19:28.057Z,17.40
2019-05-07T02:20:28.103Z,17.36
2019-05-07T02:21:28.044Z,17.35
2019-05-07T02:22:28.022Z,17.46
2019-05-07T02:23:28.012Z,17.43
2019-05-07T02:24:28.004Z,17.40
2019-05-07T02:25:28.019Z,17.33
2019-05-07T02:26:27.977Z,17.43
2019-05-07T02:27:27.958Z,17.41
2019-05-07T02:28:27.948Z,17.43
2019-05-07T02:29:27.944Z,17.48
2019-05-07T02:30:27.972Z,17.38
2019-05-07T02:31:27.922Z,17.44
2019-05-07T02:32:27.907Z,17.44
2019-05-07T02:33:27.916Z,17.46
2019-05-07T02:34:27.897Z,17.40
2019-05-07T02:35:27.918Z,17.40
2019-05-07T02:36:27.860Z,17.40
2019-05-07T02:37:35.748Z,17.44
2019-05-07T02:38:28.849Z,17.41
2019-05-07T02:39:27.845Z,17.46
2019-05-07T02:40:27.870Z,17.48
2019-05-07T02:41:27.809Z,17.47
2019-05-07T02:42:27.806Z,17.44
2019-05-07T02:43:27.790Z,17.46
2019-05-07T02:44:27.773Z,17.40
2019-05-07T02:45:27.809Z,17.38
2019-05-07T02:46:31.614Z,17.44
2019-05-07T02:47:28.742Z,17.44
2019-05-07T02:48:27.727Z,17.47
2019-05-07T02:49:27.719Z,17.40
2019-05-07T02:50:27.738Z,17.36
2019-05-07T02:51:27.707Z,17.47
2019-05-07T02:52:27.729Z,17.47
2019-05-07T02:53:27.676Z,17.43
2019-05-07T02:54:27.670Z,17.41
2019-05-07T02:55:27.694Z,17.46
2019-05-07T02:56:27.653Z,17.44
2019-05-07T02:57:27.639Z,17.44
2019-05-07T02:58:27.622Z,17.50
2019-05-07T02:59:27.622Z,17.41
2019-05-07T03:00:27.687Z,17.50
2019-05-07T03:01:27.597Z,17.50
2019-05-07T03:02:27.578Z,17.41
2019-05-07T03:03:27.575Z,17.43
2019-05-07T03:04:27.596Z,17.44
2019-05-07T03:05:27.547Z,17.47
2019-05-07T03:06:27.566Z,17.40
2019-05-07T03:07:27.534Z,17.44
2019-05-07T03:08:27.705Z,17.44
2019-05-07T03:09:27.502Z,17.44
2019-05-07T03:10:27.488Z,17.47
2019-05-07T03:11:27.509Z,17.44
2019-05-07T03:12:27.470Z,17.47
2019-05-07T03:13:27.467Z,17.44
2019-05-07T03:14:27.456Z,17.54
2019-05-07T03:15:27.439Z,17.47
2019-05-07T03:16:39.651Z,17.50
2019-05-07T03:17:28.419Z,17.51
2019-05-07T03:18:27.406Z,17.41
2019-05-07T03:19:27.397Z,17.50
2019-05-07T03:20:27.378Z,17.54
2019-05-07T03:21:27.406Z,17.59
2019-05-07T03:22:27.383Z,17.46
2019-05-07T03:23:27.344Z,17.47
2019-05-07T03:24:27.337Z,17.41
2019-05-07T03:25:27.346Z,17.46
2019-05-07T03:26:27.342Z,17.48
2019-05-07T03:27:27.302Z,17.51
2019-05-07T03:28:27.299Z,17.46
2019-05-07T03:29:27.289Z,17.44
2019-05-07T03:30:27.279Z,17.50
2019-05-07T03:31:27.293Z,17.44
2019-05-07T03:32:28.384Z,17.47
2019-05-07T03:33:27.306Z,17.51
2019-05-07T03:34:27.227Z,17.50
2019-05-07T03:35:28.259Z,17.48
2019-05-07T03:36:27.209Z,17.50
2019-05-07T03:37:27.218Z,17.48
2019-05-07T03:38:27.198Z,17.48
2019-05-07T03:39:27.175Z,17.44
2019-05-07T03:40:27.165Z,17.48
2019-05-07T03:41:27.150Z,17.48
2019-05-07T03:42:27.163Z,17.46
2019-05-07T03:43:27.127Z,17.48
2019-05-07T03:44:27.119Z,17.51
2019-05-07T03:45:27.104Z,17.51
2019-05-07T03:46:27.099Z,17.50
2019-05-07T03:47:27.111Z,17.47
2019-05-07T03:48:27.076Z,17.57
2019-05-07T03:49:27.067Z,17.48
2019-05-07T03:50:27.047Z,17.53
2019-05-07T03:51:27.042Z,17.47
2019-05-07T03:52:27.055Z,17.53
2019-05-07T03:53:27.051Z,17.44
2019-05-07T03:54:27.003Z,17.50
2019-05-07T03:55:26.992Z,17.43
2019-05-07T03:56:26.980Z,17.50
2019-05-07T03:57:26.968Z,17.50
2019-05-07T03:58:26.984Z,17.50
2019-05-07T03:59:26.955Z,17.50
2019-05-07T04:00:26.939Z,17.53
2019-05-07T04:01:26.934Z,17.48
2019-05-07T04:02:26.915Z,17.50
2019-05-07T04:03:26.932Z,17.50
2019-05-07T04:04:26.904Z,17.50
2019-05-07T04:05:26.897Z,17.50
2019-05-07T04:06:26.882Z,17.47
2019-05-07T04:07:26.857Z,17.48
2019-05-07T04:08:26.879Z,17.51
2019-05-07T04:09:26.848Z,17.48
2019-05-07T04:10:26.828Z,17.51
2019-05-07T04:11:26.819Z,17.48
2019-05-07T04:12:26.810Z,17.51
2019-05-07T04:13:26.819Z,17.62
2019-05-07T04:14:26.800Z,17.51
2019-05-07T04:15:26.809Z,17.55
2019-05-07T04:16:26.757Z,17.50
2019-05-07T04:17:27.392Z,17.54
2019-05-07T04:18:26.791Z,17.59
2019-05-07T04:19:26.744Z,17.47
2019-05-07T04:20:26.732Z,17.50
2019-05-07T04:21:26.730Z,17.51
2019-05-07T04:22:29.077Z,17.53
2019-05-07T04:23:26.707Z,17.50
2019-05-07T04:24:26.714Z,17.51
2019-05-07T04:25:26.674Z,17.53
2019-05-07T04:26:26.656Z,17.54
2019-05-07T04:27:26.654Z,17.48
2019-05-07T04:28:26.665Z,17.62
2019-05-07T04:29:26.646Z,17.51
2019-05-07T04:30:26.603Z,17.50
2019-05-07T04:31:26.623Z,17.50
2019-05-07T04:32:26.590Z,17.59
2019-05-07T04:33:26.577Z,17.47
2019-05-07T04:34:26.588Z,17.51
2019-05-07T04:35:26.558Z,17.53
2019-05-07T04:36:26.542Z,17.51
2019-05-07T04:37:26.530Z,17.57
2019-05-07T04:38:26.554Z,17.59
2019-05-07T04:39:26.539Z,17.55
2019-05-07T04:40:26.497Z,17.51
2019-05-07T04:41:26.485Z,17.48
2019-05-07T04:42:26.552Z,17.53
2019-05-07T04:43:26.469Z,17.53
2019-05-07T04:44:26.484Z,17.48
2019-05-07T04:45:26.465Z,17.48
2019-05-07T04:46:26.434Z,17.50
2019-05-07T04:47:38.424Z,17.50
2019-05-07T04:48:27.431Z,17.55
2019-05-07T04:49:26.435Z,17.54
2019-05-07T04:50:39.428Z,17.55
2019-05-07T04:51:27.379Z,17.50
2019-05-07T04:52:26.367Z,17.55
2019-05-07T04:53:26.360Z,17.48
2019-05-07T04:54:26.377Z,17.59
2019-05-07T04:55:26.365Z,17.50
2019-05-07T04:56:26.320Z,17.48
2019-05-07T04:57:26.316Z,17.54
2019-05-07T04:58:26.780Z,17.57
2019-05-07T04:59:26.314Z,17.47
2019-05-07T05:00:26.307Z,17.55
2019-05-07T05:01:26.264Z,17.51
2019-05-07T05:02:26.258Z,17.54
2019-05-07T05:03:26.245Z,17.53
2019-05-07T05:04:30.294Z,17.54
2019-05-07T05:05:27.275Z,17.50
2019-05-07T05:06:26.217Z,17.51
2019-05-07T05:07:26.207Z,17.50
2019-05-07T05:08:26.197Z,17.55
2019-05-07T05:09:26.278Z,17.47
2019-05-07T05:10:26.199Z,17.53
2019-05-07T05:11:26.172Z,17.51
2019-05-07T05:12:26.159Z,17.48
2019-05-07T05:13:26.144Z,17.54
2019-05-07T05:14:26.130Z,17.53
2019-05-07T05:15:26.140Z,17.48
2019-05-07T05:16:26.112Z,17.51
2019-05-07T05:17:26.098Z,17.53
2019-05-07T05:18:26.119Z,17.53
2019-05-07T05:19:26.081Z,17.53
2019-05-07T05:20:26.093Z,17.53
2019-05-07T05:21:26.049Z,17.55
2019-05-07T05:22:26.055Z,17.50
2019-05-07T05:23:26.029Z,17.54
2019-05-07T05:24:26.019Z,17.53
2019-05-07T05:25:26.066Z,17.57
2019-05-07T05:26:26.000Z,17.59
2019-05-07T05:27:25.983Z,17.51
2019-05-07T05:28:25.983Z,17.55
2019-05-07T05:29:25.960Z,17.51
2019-05-07T05:30:25.972Z,17.59
2019-05-07T05:31:25.976Z,17.51
2019-05-07T05:32:25.935Z,17.48
2019-05-07T05:33:25.917Z,17.54
2019-05-07T05:34:25.904Z,17.55
2019-05-07T05:35:25.941Z,17.59
2019-05-07T05:36:25.908Z,17.54
2019-05-07T05:37:25.872Z,17.51
2019-05-07T05:38:25.895Z,17.62
2019-05-07T05:39:25.853Z,17.53
2019-05-07T05:40:25.865Z,17.59
2019-05-07T05:41:25.865Z,17.55
2019-05-07T05:42:25.820Z,17.55
2019-05-07T05:43:25.820Z,17.53
2019-05-07T05:44:25.798Z,17.63
2019-05-07T05:45:25.808Z,17.54
2019-05-07T05:46:25.813Z,17.57
2019-05-07T05:47:25.766Z,17.57
2019-05-07T05:48:25.754Z,17.50
2019-05-07T05:49:25.753Z,17.62
2019-05-07T05:50:25.744Z,17.57
2019-05-07T05:51:25.772Z,17.55
2019-05-07T05:52:25.716Z,17.54
2019-05-07T05:53:25.733Z,17.62
2019-05-07T05:54:25.701Z,17.55
2019-05-07T05:55:25.677Z,17.57
2019-05-07T05:56:25.696Z,17.57
2019-05-07T05:57:25.657Z,17.55
2019-05-07T05:58:25.654Z,17.54
2019-05-07T05:59:37.139Z,17.63
2019-05-07T06:00:26.635Z,17.55
2019-05-07T06:01:25.657Z,17.64
2019-05-07T06:02:25.602Z,17.64
2019-05-07T06:03:25.638Z,17.55
2019-05-07T06:04:25.586Z,17.55
2019-05-07T06:05:25.573Z,17.59
2019-05-07T06:06:25.556Z,17.59
2019-05-07T06:07:25.587Z,17.53
2019-05-07T06:08:25.561Z,17.59
2019-05-07T06:09:25.523Z,17.59
2019-05-07T06:10:25.520Z,17.59
2019-05-07T06:11:25.523Z,17.63
2019-05-07T06:12:25.532Z,17.62
2019-05-07T06:13:25.524Z,17.63
2019-05-07T06:14:25.477Z,17.59
2019-05-07T06:15:25.465Z,17.64
2019-05-07T06:16:25.447Z,17.62
2019-05-07T06:17:25.467Z,17.59
2019-05-07T06:18:25.426Z,17.59
2019-05-07T06:19:25.429Z,17.62
2019-05-07T06:20:25.409Z,17.55
2019-05-07T06:21:25.390Z,17.64
2019-05-07T06:22:25.419Z,17.59
2019-05-07T06:23:25.374Z,17.59
2019-05-07T06:24:25.382Z,17.66
2019-05-07T06:25:26.003Z,17.69
2019-05-07T06:26:25.362Z,17.66
2019-05-07T06:27:25.374Z,17.64
2019-05-07T06:28:25.324Z,17.64
2019-05-07T06:29:25.314Z,17.57
2019-05-07T06:30:25.311Z,17.66
2019-05-07T06:31:25.314Z,17.62
2019-05-07T06:32:25.298Z,17.66
2019-05-07T06:33:25.275Z,17.67
2019-05-07T06:34:25.251Z,17.57
2019-05-07T06:35:25.260Z,17.66
2019-05-07T06:36:25.236Z,17.55
2019-05-07T06:37:25.220Z,17.57
2019-05-07T06:38:25.235Z,17.62
2019-05-07T06:39:25.196Z,17.69
2019-05-07T06:40:29.134Z,17.62
2019-05-07T06:41:25.176Z,17.64
2019-05-07T06:42:25.200Z,17.73
2019-05-07T06:43:25.153Z,17.62
2019-05-07T06:44:25.140Z,17.62
2019-05-07T06:45:25.135Z,17.63
2019-05-07T06:46:25.124Z,17.57
2019-05-07T06:47:25.144Z,17.67
2019-05-07T06:48:37.685Z,17.59
2019-05-07T06:49:26.093Z,17.62
2019-05-07T06:50:25.077Z,17.64
2019-05-07T06:51:25.062Z,17.66
2019-05-07T06:52:25.080Z,17.73
2019-05-07T06:53:25.074Z,17.73
2019-05-07T06:54:25.037Z,17.63
2019-05-07T06:55:25.029Z,17.67
2019-05-07T06:56:25.022Z,17.63
2019-05-07T06:57:25.000Z,17.67
2019-05-07T06:58:25.011Z,17.69
2019-05-07T06:59:24.978Z,17.70
2019-05-07T07:00:24.969Z,17.63
2019-05-07T07:01:24.962Z,17.69
2019-05-07T07:02:25.281Z,17.63
2019-05-07T07:03:24.960Z,17.63
2019-05-07T07:04:24.952Z,17.63
2019-05-07T07:05:25.960Z,17.63
2019-05-07T07:06:24.904Z,17.71
2019-05-07T07:07:30.967Z,17.63
2019-05-07T07:08:25.915Z,17.64
2019-05-07T07:09:24.867Z,17.71
2019-05-07T07:10:24.852Z,17.59
2019-05-07T07:11:24.854Z,17.69
2019-05-07T07:12:26.147Z,17.67
2019-05-07T07:13:24.856Z,17.63
2019-05-07T07:14:24.825Z,17.66
2019-05-07T07:15:24.852Z,17.63
2019-05-07T07:16:24.790Z,17.63
2019-05-07T07:17:24.786Z,17.69
2019-05-07T07:18:24.801Z,17.63
2019-05-07T07:19:24.765Z,17.76
2019-05-07T07:20:24.769Z,17.71
2019-05-07T07:21:24.740Z,17.64
2019-05-07T07:22:24.735Z,17.76
2019-05-07T18:13:17.980Z,18.29
